Time;durP1;ratioP1;P1;durP2;ratioP2;P2;SDS_P1;SDS_P2;PMS_P1;PMS_P2;Temp;Humidity;BMP_temperature;BMP_pressure;BME280_temperature;BME280_humidity;BME280_pressure;Samples;Min_cycle;Max_cycle;Signal;HPM_P1;HPM_P2
2024/01/20 00:01:34;;;;;;;18.38;7.25;;;;;;;-7.28;77.62;99419.50;4858747;29;20132;-79
2024/01/20 00:04:00;;;;;;;14.98;6.80;;;;;;;-6.87;77.54;99480.75;4833059;29;20053;-73
2024/01/20 00:06:26;;;;;;;16.17;7.00;;;;;;;-7.28;77.50;99416.97;4850182;29;20140;-73
2024/01/20 00:08:52;;;;;;;19.50;7.80;;;;;;;-7.21;77.76;99423.22;4835872;29;20060;-70
2024/01/20 00:11:21;;;;;;;18.67;6.85;;;;;;;-6.91;78.41;99483.91;4838408;29;20100;-72
2024/01/20 00:13:51;;;;;;;17.60;6.78;;;;;;;-6.67;77.84;99509.72;4818951;29;20042;-73
2024/01/20 00:16:34;;;;;;;19.63;6.70;;;;;;;-6.73;77.79;99500.09;4848672;29;20079;-74
2024/01/20 00:19:03;;;;;;;22.48;7.68;;;;;;;-6.90;77.98;99457.81;4856815;29;20053;-73
2024/01/20 00:21:32;;;;;;;21.20;7.57;;;;;;;-7.00;77.90;99444.66;4846787;29;20038;-73
2024/01/20 00:23:58;;;;;;;20.48;8.13;;;;;;;-7.11;77.78;99430.53;4833869;29;20042;-72
2024/01/20 00:26:25;;;;;;;18.02;6.85;;;;;;;-6.37;78.07;99535.84;4846628;29;20045;-76
2024/01/20 00:28:51;;;;;;;19.55;7.57;;;;;;;-6.53;78.09;99495.28;4852128;29;20122;-75
2024/01/20 00:31:17;;;;;;;19.63;7.57;;;;;;;-6.48;78.15;99515.78;4842130;29;20046;-74
2024/01/20 00:33:44;;;;;;;16.17;6.75;;;;;;;-6.28;78.25;99534.59;4815746;29;20529;-76
2024/01/20 00:36:13;;;;;;;18.33;7.00;;;;;;;-6.90;77.85;99420.75;4857368;29;20045;-71
2024/01/20 00:38:42;;;;;;;;;;;;;;;-6.17;78.15;99533.50;4848253;29;20470;-71
2024/01/20 00:41:10;;;;;;;20.75;6.43;;;;;;;-6.27;78.05;99526.19;4842287;29;19920;-72
2024/01/20 00:43:38;;;;;;;17.58;6.72;;;;;;;-6.24;78.36;99536.50;4856989;29;20184;-73
2024/01/20 00:46:07;;;;;;;19.70;7.32;;;;;;;-6.22;78.14;99535.81;4841772;29;20127;-72
2024/01/20 00:48:34;;;;;;;19.13;7.30;;;;;;;-6.18;78.15;99533.44;4872611;29;20038;-73
2024/01/20 00:51:03;;;;;;;20.63;6.70;;;;;;;-6.67;78.22;99449.81;4845492;29;20145;-72
2024/01/20 00:53:30;;;;;;;15.57;6.57;;;;;;;-6.13;78.36;99517.69;4850511;29;20038;-72
2024/01/20 00:56:04;;;;;;;18.38;6.07;;;;;;;-6.25;78.02;99479.91;4843707;29;20083;-73
2024/01/20 00:58:30;;;;;;;17.95;6.85;;;;;;;-6.44;78.16;99439.22;4826237;29;20134;-74
2024/01/20 01:00:57;;;;;;;15.00;6.32;;;;;;;-6.22;78.48;99471.59;4828906;29;20054;-72
2024/01/20 01:03:32;;;;;;;20.67;7.15;;;;;;;-6.10;78.35;99495.06;4843212;29;20071;-72
2024/01/20 01:06:04;;;;;;;20.70;7.20;;;;;;;-6.13;77.95;99506.66;4827466;29;20114;-73
2024/01/20 01:08:52;;;;;;;17.77;6.85;;;;;;;-5.90;78.27;99533.22;4858055;29;20038;-73
2024/01/20 01:11:46;;;;;;;16.25;6.38;;;;;;;-6.12;77.94;99496.63;4840744;29;20042;-72
2024/01/20 01:14:14;;;;;;;24.40;7.32;;;;;;;-6.37;78.74;99439.59;4843474;29;20045;-73
2024/01/20 01:16:40;;;;;;;18.02;7.30;;;;;;;-5.76;77.84;99532.25;4841634;29;20048;-73
2024/01/20 01:19:29;;;;;;;19.10;7.47;;;;;;;-6.34;78.13;99426.22;4847666;29;20573;-74
2024/01/20 01:22:01;;;;;;;19.27;6.45;;;;;;;-6.10;78.33;99458.69;4843079;29;20044;-74
2024/01/20 01:24:27;;;;;;;18.83;7.75;;;;;;;-5.88;78.58;99482.59;4836071;29;20037;-72
2024/01/20 01:26:56;;;;;;;18.67;6.90;;;;;;;-5.84;78.30;99508.16;4838933;29;20052;-72
2024/01/20 01:29:22;;;;;;;17.27;6.95;;;;;;;-6.28;78.50;99418.94;4855866;29;20130;-72
2024/01/20 01:31:58;;;;;;;22.20;7.85;;;;;;;-6.16;78.50;99431.38;4840656;29;20042;-73
2024/01/20 01:34:27;;;;;;;20.02;6.78;;;;;;;-6.64;77.94;99352.06;4841399;29;20048;-71
2024/01/20 01:36:55;;;;;;;23.65;7.75;;;;;;;-5.80;78.60;99497.41;4855541;29;20088;-72
2024/01/20 01:39:24;;;;;;;18.40;6.90;;;;;;;-5.59;78.25;99534.78;4848301;29;20054;-71
2024/01/20 01:42:01;;;;;;;18.48;7.28;;;;;;;-6.09;78.16;99450.31;4838708;29;20061;-72
2024/01/20 01:44:30;;;;;;;18.98;6.90;;;;;;;-5.63;78.74;99520.25;4842391;29;20506;-73
2024/01/20 01:47:07;;;;;;;19.98;7.68;;;;;;;-6.45;78.62;99377.53;4841584;29;20050;-72
2024/01/20 01:49:33;;;;;;;16.50;7.13;;;;;;;-5.71;78.21;99501.22;4841245;29;20042;-72
2024/01/20 01:52:02;;;;;;;23.73;7.80;;;;;;;-5.70;78.17;99506.34;4827734;29;20627;-72
2024/01/20 01:54:29;;;;;;;20.77;8.18;;;;;;;-5.76;78.61;99501.84;4838059;29;20118;-71
2024/01/20 01:56:59;;;;;;;18.30;8.43;;;;;;;-5.64;78.68;99510.88;4855721;29;20144;-69
2024/01/20 01:59:31;;;;;;;21.83;7.30;;;;;;;-5.57;78.60;99525.59;4841499;29;20054;-71
2024/01/20 02:02:03;;;;;;;;;;;;;;;-5.35;78.71;99534.31;4824567;29;20046;-70
2024/01/20 02:04:32;;;;;;;21.45;7.85;;;;;;;-5.33;78.73;99537.78;4839832;29;19972;-69
2024/01/20 02:07:06;;;;;;;21.17;8.35;;;;;;;-5.30;78.39;99528.69;4846417;29;20070;-70
2024/01/20 02:09:36;;;;;;;19.73;8.45;;;;;;;-5.53;79.01;99484.41;4842640;29;20046;-70
2024/01/20 02:12:03;;;;;;;16.70;7.07;;;;;;;-5.35;78.52;99516.53;4838061;29;20068;-70
2024/01/20 02:14:29;;;;;;;25.00;8.27;;;;;;;-5.84;78.15;99434.66;4828769;29;20056;-70
2024/01/20 02:16:58;;;;;;;15.85;7.53;;;;;;;-5.27;78.35;99524.53;4841319;29;20056;-70
2024/01/20 02:19:24;;;;;;;18.20;6.78;;;;;;;-5.46;78.72;99494.06;4826466;29;20049;-70
2024/01/20 02:21:53;;;;;;;18.23;7.10;;;;;;;-5.54;78.41;99491.94;4859675;29;20046;-70
2024/01/20 02:24:19;;;;;;;18.77;7.28;;;;;;;-5.31;79.10;99515.91;4844488;29;20074;-72
2024/01/20 02:26:53;;;;;;;18.42;7.47;;;;;;;-5.17;78.79;99541.97;4857795;29;20090;-71
2024/01/20 02:29:19;;;;;;;18.27;7.15;;;;;;;-5.24;79.02;99520.50;4844698;29;20044;-70
2024/01/20 02:31:45;;;;;;;18.88;6.78;;;;;;;-5.33;78.35;99493.03;4862566;29;20069;-71
2024/01/20 02:34:11;;;;;;;18.70;6.65;;;;;;;-5.24;79.18;99504.41;4827566;29;20077;-70
2024/01/20 02:36:38;;;;;;;19.27;7.13;;;;;;;-5.14;78.69;99517.63;4844391;29;20042;-71
2024/01/20 02:39:04;;;;;;;17.73;7.10;;;;;;;-5.39;79.02;99476.59;4849006;29;20098;-71
2024/01/20 02:41:35;;;;;;;19.75;6.68;;;;;;;-5.11;78.67;99533.78;4841383;29;20056;-72
2024/01/20 02:44:08;;;;;;;21.25;6.45;;;;;;;-5.07;78.84;99544.16;4825684;29;20049;-70
2024/01/20 02:46:34;;;;;;;23.00;7.80;;;;;;;-5.08;79.00;99541.56;4842162;29;20046;-72
2024/01/20 02:49:03;;;;;;;16.42;6.57;;;;;;;-5.05;79.02;99544.25;4851294;29;20046;-71
2024/01/20 02:51:32;;;;;;;20.88;7.53;;;;;;;-5.24;78.68;99502.75;4828662;29;20991;-69
2024/01/20 02:54:01;;;;;;;20.52;7.40;;;;;;;-5.19;77.93;99530.88;4845027;29;20053;-70
2024/01/20 02:56:27;;;;;;;17.15;6.90;;;;;;;-5.35;78.68;99514.91;4825991;29;20046;-71
2024/01/20 02:58:59;;;;;;;18.25;6.40;;;;;;;-5.84;78.54;99449.00;4829816;29;20143;-70
2024/01/20 03:01:28;;;;;;;17.17;6.85;;;;;;;-5.33;78.68;99531.06;4859030;29;20053;-71
2024/01/20 03:03:55;;;;;;;19.08;7.75;;;;;;;-5.57;79.15;99490.09;4857620;29;20473;-71
2024/01/20 03:06:21;;;;;;;19.48;7.22;;;;;;;-5.32;78.66;99526.84;4857901;29;20053;-71
2024/01/20 03:08:47;;;;;;;15.73;6.75;;;;;;;-5.25;78.89;99553.41;4842653;29;20038;-71
2024/01/20 03:11:16;;;;;;;18.42;6.68;;;;;;;-5.25;78.48;99559.34;4851110;29;20053;-70
2024/01/20 03:13:42;;;;;;;21.02;7.38;;;;;;;-5.46;78.58;99536.28;4841481;29;20157;-71
2024/01/20 03:16:09;;;;;;;16.48;7.20;;;;;;;-5.51;78.92;99525.94;4841607;29;20057;-70
2024/01/20 03:18:41;;;;;;;21.15;7.55;;;;;;;-5.50;78.76;99529.31;4857601;29;20061;-71
2024/01/20 03:21:08;;;;;;;19.38;7.47;;;;;;;-5.47;79.02;99540.50;4842877;29;20042;-72
2024/01/20 03:23:35;;;;;;;20.42;8.13;;;;;;;-5.82;78.45;99478.69;4834724;29;20072;-71
2024/01/20 03:26:10;;;;;;;17.63;7.57;;;;;;;-5.55;78.65;99518.94;4856613;29;20046;-73
2024/01/20 03:28:39;;;;;;;22.55;8.02;;;;;;;-5.44;78.64;99552.47;4827375;29;20056;-72
2024/01/20 03:31:05;;;;;;;21.60;6.85;;;;;;;-5.45;78.42;99559.22;4842403;29;20132;-72
2024/01/20 03:33:33;;;;;;;21.02;7.20;;;;;;;-5.78;78.88;99502.56;4828024;29;20495;-71
2024/01/20 03:36:08;;;;;;;19.65;7.65;;;;;;;-5.45;78.74;99584.59;4856996;29;20539;-73
2024/01/20 03:38:42;;;;;;;18.65;8.20;;;;;;;-5.72;78.43;99529.88;4826928;29;20139;-69
2024/01/20 03:41:10;;;;;;;17.65;7.20;;;;;;;-5.72;78.19;99543.44;4842544;29;20140;-71
2024/01/20 03:43:36;;;;;;;18.52;7.72;;;;;;;-5.49;78.41;99586.84;4842882;29;20057;-70
2024/01/20 03:46:03;;;;;;;26.33;10.23;;;;;;;-5.57;78.82;99562.78;4849912;29;20643;-70
2024/01/20 03:48:29;;;;;;;20.23;8.15;;;;;;;-5.49;78.90;99575.06;4842693;29;20056;-69
2024/01/20 03:50:57;;;;;;;20.48;8.68;;;;;;;-5.61;78.75;99565.16;4841183;29;20049;-71
2024/01/20 03:53:27;;;;;;;18.10;8.10;;;;;;;-5.92;78.86;99519.59;4857282;29;20061;-71
2024/01/20 03:55:55;;;;;;;19.98;8.25;;;;;;;-5.76;79.31;99542.41;4832248;29;20153;-70
2024/01/20 03:58:21;;;;;;;22.10;8.65;;;;;;;-5.67;79.15;99553.84;4839742;29;20074;-70
2024/01/20 04:00:47;;;;;;;16.80;7.75;;;;;;;-5.49;78.82;99585.22;4825319;29;20046;-70
2024/01/20 04:03:13;;;;;;;20.70;8.07;;;;;;;-5.56;78.77;99570.47;4842567;29;20060;-71
2024/01/20 04:05:42;;;;;;;17.13;7.15;;;;;;;-5.73;78.57;99551.81;4870876;29;20176;-69
2024/01/20 04:08:09;;;;;;;19.92;8.25;;;;;;;-5.58;78.88;99584.72;4842676;29;20052;-70
2024/01/20 04:10:40;;;;;;;21.92;6.97;;;;;;;-5.63;78.60;99588.69;4841132;29;20105;-70
2024/01/20 04:13:07;;;;;;;20.80;7.20;;;;;;;-5.67;78.83;99592.72;4825999;29;20042;-71
2024/01/20 04:15:36;;;;;;;18.20;8.00;;;;;;;-6.18;78.61;99511.50;4841799;29;20057;-70
2024/01/20 04:18:02;;;;;;;22.13;8.48;;;;;;;-5.81;78.64;99581.84;4841827;29;20069;-71
2024/01/20 04:20:36;;;;;;;25.73;8.80;;;;;;;-5.66;79.07;99597.00;4856080;29;20825;-71
2024/01/20 04:23:05;;;;;;;18.90;7.97;;;;;;;-5.82;78.60;99575.03;4844023;29;20073;-70
2024/01/20 04:25:37;;;;;;;21.33;7.43;;;;;;;-5.86;79.00;99562.13;4826594;29;20052;-72
2024/01/20 04:28:03;;;;;;;28.25;9.30;;;;;;;-5.84;79.04;99566.47;4849034;29;20106;-71
2024/01/20 04:30:30;;;;;;;21.08;9.48;;;;;;;-5.95;78.86;99554.91;4834964;29;20041;-72
2024/01/20 04:32:59;;;;;;;22.90;8.05;;;;;;;-5.71;78.74;99587.41;4857242;29;20057;-69
2024/01/20 04:35:28;;;;;;;24.00;8.02;;;;;;;-6.08;79.12;99525.53;4827919;29;20046;-71
2024/01/20 04:37:57;;;;;;;24.15;9.55;;;;;;;-5.85;78.73;99556.25;4844638;29;20061;-72
2024/01/20 04:40:26;;;;;;;22.80;8.70;;;;;;;-5.84;78.41;99574.06;4827069;29;20075;-71
2024/01/20 04:42:55;;;;;;;29.55;9.93;;;;;;;-5.80;78.39;99591.19;4840324;29;20054;-70
2024/01/20 04:45:21;;;;;;;28.48;9.63;;;;;;;-5.91;78.64;99587.22;4840438;29;20094;-72
2024/01/20 04:47:47;;;;;;;25.88;9.48;;;;;;;-6.65;78.90;99457.53;4850327;29;20069;-71
2024/01/20 04:50:15;;;;;;;27.58;10.45;;;;;;;-5.97;79.24;99575.09;4856262;29;20154;-71
2024/01/20 04:52:49;;;;;;;29.73;9.60;;;;;;;-5.77;78.89;99609.09;4842726;29;20076;-71
2024/01/20 04:55:17;;;;;;;25.70;8.93;;;;;;;-6.20;78.74;99530.81;4840540;29;20097;-72
2024/01/20 04:57:44;;;;;;;22.77;9.73;;;;;;;-6.36;79.21;99506.31;4833496;29;21115;-71
2024/01/20 05:00:16;;;;;;;24.35;9.23;;;;;;;-5.84;79.52;99588.41;4856057;29;20042;-71
2024/01/20 05:02:43;;;;;;;28.17;10.60;;;;;;;-5.86;79.16;99579.88;4842308;29;20045;-71
2024/01/20 05:05:16;;;;;;;23.02;9.25;;;;;;;-5.94;79.31;99566.78;4838176;29;20097;-71
2024/01/20 05:07:43;;;;;;;29.83;9.50;;;;;;;-5.69;79.09;99611.19;4856715;29;20176;-71
2024/01/20 05:10:09;;;;;;;22.33;8.98;;;;;;;-5.69;78.90;99622.19;4841548;29;20046;-76
2024/01/20 05:12:38;;;;;;;25.65;9.90;;;;;;;-5.69;78.90;99608.66;4841963;29;20053;-72
2024/01/20 05:15:11;;;;;;;24.83;10.10;;;;;;;-5.96;79.06;99579.38;4848547;29;20042;-72
2024/01/20 05:17:45;;;;;;;26.60;10.40;;;;;;;-5.78;78.86;99603.97;4840888;29;20102;-70
2024/01/20 05:20:18;;;;;;;23.35;8.15;;;;;;;-6.43;79.28;99514.38;4817336;29;20042;-68
2024/01/20 05:22:49;;;;;;;21.60;9.00;;;;;;;-6.11;78.62;99568.44;4856535;29;20045;-69
2024/01/20 05:25:18;;;;;;;24.25;9.25;;;;;;;-5.69;79.30;99619.66;4840762;29;20060;-68
2024/01/20 05:27:45;;;;;;;27.33;9.90;;;;;;;-5.66;78.78;99624.03;4841316;29;20052;-67
2024/01/20 05:30:14;;;;;;;30.67;10.38;;;;;;;-5.80;79.40;99601.34;4841871;29;20509;-67
2024/01/20 05:32:41;;;;;;;26.08;10.73;;;;;;;-6.01;78.87;99572.34;4855310;29;20076;-68
2024/01/20 05:35:11;;;;;;;27.90;9.90;;;;;;;-5.81;79.07;99603.81;4823253;29;20065;-67
2024/01/20 05:37:40;;;;;;;31.35;10.07;;;;;;;-5.69;79.07;99628.94;4854813;29;20132;-67
2024/01/20 05:40:07;;;;;;;25.63;8.70;;;;;;;-5.93;79.03;99593.88;4837962;29;20058;-68
2024/01/20 05:42:42;;;;;;;28.50;10.00;;;;;;;-5.72;79.00;99637.22;4835332;29;20089;-71
2024/01/20 05:45:10;;;;;;;27.15;9.52;;;;;;;-5.57;79.56;99643.94;4871119;29;20044;-70
2024/01/20 05:47:40;;;;;;;23.23;10.27;;;;;;;-5.58;79.37;99637.13;4837737;29;20199;-68
2024/01/20 05:50:09;;;;;;;22.90;10.23;;;;;;;-5.81;78.73;99598.72;4855954;29;20140;-68
2024/01/20 05:52:38;;;;;;;;;;;;;;;-5.57;78.94;99638.84;4840750;29;20102;-68
2024/01/20 05:55:05;;;;;;;26.40;10.07;;;;;;;-5.64;78.93;99625.84;4838253;29;19924;-68
2024/01/20 05:57:49;;;;;;;;;;;;;;;;;;;;;
2024/01/20 06:00:24;;;;;;;23.90;8.68;;;;;;;-5.57;78.44;99642.25;4841097;29;20429;-69
2024/01/20 06:02:53;;;;;;;29.77;10.05;;;;;;;-5.59;78.76;99643.84;4839453;29;20075;-69
2024/01/20 06:05:22;;;;;;;19.63;7.70;;;;;;;-5.68;79.01;99634.06;4826036;29;20050;-69
2024/01/20 06:07:55;;;;;;;24.20;9.50;;;;;;;-5.78;78.98;99604.81;4841382;29;20053;-69
2024/01/20 06:10:31;;;;;;;28.75;9.85;;;;;;;-5.80;78.78;99596.25;4824434;29;20049;-68
2024/01/20 06:13:20;;;;;;;28.50;10.07;;;;;;;-5.69;78.67;99606.13;4826290;29;20049;-69
2024/01/20 06:15:52;;;;;;;31.35;10.27;;;;;;;-5.58;78.73;99615.16;4831859;29;20062;-74
2024/01/20 06:18:19;;;;;;;30.42;10.93;;;;;;;-5.65;78.79;99608.88;4849078;29;20050;-72
2024/01/20 06:20:45;;;;;;;33.38;10.93;;;;;;;-5.29;79.40;99649.66;4834561;29;20519;-72
2024/01/20 06:23:11;;;;;;;31.80;10.68;;;;;;;-5.46;79.21;99605.66;4834914;29;20052;-73
2024/01/20 06:25:37;;;;;;;27.23;11.48;;;;;;;-5.25;79.57;99632.94;4835252;29;20050;-72
2024/01/20 06:28:05;;;;;;;30.35;10.30;;;;;;;-5.29;79.10;99620.88;4837765;29;20078;-72
2024/01/20 06:30:32;;;;;;;31.38;11.32;;;;;;;-5.27;78.88;99634.53;4832912;29;20049;-68
2024/01/20 06:32:59;;;;;;;30.92;10.38;;;;;;;-5.06;79.34;99664.34;4848235;29;20057;-71
2024/01/20 06:35:25;;;;;;;27.08;9.80;;;;;;;-5.12;78.91;99653.84;4829582;29;20524;-70
2024/01/20 06:37:51;;;;;;;31.73;12.00;;;;;;;-5.08;79.51;99635.47;4834760;29;20053;-70
2024/01/20 06:40:17;;;;;;;32.45;11.52;;;;;;;-5.10;79.29;99609.13;4863297;29;20054;-68
2024/01/20 06:42:45;;;;;;;20.92;8.60;;;;;;;-4.87;78.45;99663.63;4832730;29;20074;-69
2024/01/20 06:45:11;;;;;;;32.10;11.00;;;;;;;-5.19;78.84;99595.19;4840787;29;20094;-67
2024/01/20 06:47:37;;;;;;;25.92;10.73;;;;;;;-4.98;78.36;99625.00;4841733;29;20122;-70
2024/01/20 06:50:03;;;;;;;26.33;9.85;;;;;;;-5.06;78.51;99600.88;4847141;29;20069;-69
2024/01/20 06:52:31;;;;;;;30.88;11.77;;;;;;;-5.22;78.96;99571.31;4828415;29;20046;-70
2024/01/20 06:54:57;;;;;;;39.10;11.98;;;;;;;-5.15;78.79;99578.47;4840621;29;20053;-69
2024/01/20 06:57:26;;;;;;;33.58;11.88;;;;;;;-4.73;79.24;99629.63;4844730;29;20108;-67
2024/01/20 06:59:52;;;;;;;26.50;10.88;;;;;;;-4.56;78.66;99653.31;4842149;29;20090;-69
2024/01/20 07:02:18;;;;;;;34.60;13.48;;;;;;;-4.66;78.87;99619.78;4858597;29;20077;-70
2024/01/20 07:04:44;;;;;;;36.40;14.88;;;;;;;-4.50;78.56;99656.94;4848294;29;20081;-69
2024/01/20 07:07:10;;;;;;;53.65;20.58;;;;;;;-4.33;79.15;99684.06;4843879;29;20077;-68
2024/01/20 07:09:39;;;;;;;53.75;20.08;;;;;;;-4.35;78.82;99672.06;4844853;29;20038;-69
2024/01/20 07:12:07;;;;;;;43.47;16.33;;;;;;;-4.45;78.66;99641.16;4828023;29;20046;-69
2024/01/20 07:14:33;;;;;;;40.40;16.20;;;;;;;-4.32;79.07;99642.63;4858933;29;20132;-70
2024/01/20 07:16:59;;;;;;;33.58;11.98;;;;;;;-3.96;78.98;99682.41;4844882;29;20133;-72
2024/01/20 07:19:25;;;;;;;38.90;12.75;;;;;;;-3.87;79.47;99684.53;4842464;29;20094;-71
2024/01/20 07:21:51;;;;;;;30.58;12.15;;;;;;;-4.72;78.75;99550.13;4841742;29;20504;-71
2024/01/20 07:24:17;;;;;;;31.10;12.57;;;;;;;-3.98;78.43;99659.47;4843752;29;20526;-72
2024/01/20 07:26:43;;;;;;;35.97;13.40;;;;;;;-4.30;78.80;99595.25;4842624;29;20045;-73
2024/01/20 07:29:09;;;;;;;29.23;13.32;;;;;;;-3.87;79.22;99642.19;4844196;29;20046;-73
2024/01/20 07:31:35;;;;;;;36.08;12.85;;;;;;;-3.54;79.39;99680.16;4811814;29;20057;-71
2024/01/20 07:34:02;;;;;;;35.97;14.52;;;;;;;-3.46;79.12;99665.25;4847981;29;20085;-71
2024/01/20 07:36:28;;;;;;;32.60;12.10;;;;;;;-3.50;79.29;99648.94;4842079;29;20046;-72
2024/01/20 07:49:41;;;;;;;40.60;16.85;;;;;;;-2.92;78.67;99633.63;5058713;27;20432;-70
2024/01/20 07:52:08;;;;;;;35.65;14.43;;;;;;;-2.54;78.64;99687.88;5042485;28;20060;-72
2024/01/20 07:54:37;;;;;;;31.55;13.52;;;;;;;-2.43;79.26;99683.25;5051371;28;20102;-70
2024/01/20 07:57:05;;;;;;;35.33;15.07;;;;;;;-2.28;79.41;99682.97;5049890;28;20037;-72
2024/01/20 07:59:34;;;;;;;35.95;13.90;;;;;;;-2.34;78.95;99681.06;5054174;28;20451;-71
2024/01/20 08:02:18;;;;;;;31.92;13.82;;;;;;;-2.51;79.08;99659.09;5063576;28;20047;-70
2024/01/20 08:04:44;;;;;;;34.65;13.30;;;;;;;-2.50;78.58;99659.16;5045505;28;20033;-68
2024/01/20 08:07:13;;;;;;;38.13;14.45;;;;;;;-2.38;79.59;99670.69;5059306;28;20028;-71
2024/01/20 08:09:51;;;;;;;33.42;13.18;;;;;;;-2.19;79.08;99687.56;5046612;28;20810;-74
2024/01/20 08:12:38;;;;;;;35.33;13.32;;;;;;;-2.47;79.22;99627.84;5044231;28;20629;-70
2024/01/20 08:15:08;;;;;;;35.50;13.82;;;;;;;-2.00;79.34;99686.66;5079306;28;20045;-76
2024/01/20 08:17:35;;;;;;;33.55;13.43;;;;;;;-2.29;79.32;99643.00;5044428;28;20045;-74
2024/01/20 08:20:02;;;;;;;38.38;14.88;;;;;;;-2.09;79.06;99681.16;5066272;28;20045;-72
2024/01/20 08:22:39;;;;;;;28.13;13.30;;;;;;;-1.90;79.24;99688.78;5026578;28;20044;-72
2024/01/20 08:25:07;;;;;;;33.03;14.70;;;;;;;-2.05;79.01;99644.78;5033917;28;20041;-74
2024/01/20 08:27:36;;;;;;;36.17;14.02;;;;;;;-1.69;79.23;99683.63;5037289;28;20029;-72
2024/01/20 08:30:13;;;;;;;33.20;14.85;;;;;;;-1.78;79.73;99649.22;5077517;28;20037;-75
2024/01/20 08:32:40;;;;;;;29.98;14.07;;;;;;;-1.44;80.05;99671.78;5065869;28;20074;-70
2024/01/20 08:35:06;;;;;;;31.63;13.02;;;;;;;-1.45;79.08;99661.53;5045670;28;20131;-68
2024/01/20 08:37:35;;;;;;;41.28;17.30;;;;;;;-1.30;79.24;99668.88;5099245;23;20050;-70
2024/01/20 08:40:04;;;;;;;38.53;16.58;;;;;;;-1.15;79.61;99692.44;4996980;28;20042;-70
2024/01/20 08:42:30;;;;;;;36.63;15.70;;;;;;;-1.00;79.87;99684.47;5015335;28;20058;-69
2024/01/20 08:44:59;;;;;;;33.05;14.02;;;;;;;-1.31;79.20;99637.38;5029748;28;20118;-69
2024/01/20 08:47:27;;;;;;;37.85;15.05;;;;;;;-0.79;79.60;99680.94;5013679;28;20034;-67
2024/01/20 08:49:56;;;;;;;38.50;15.65;;;;;;;-0.46;79.91;99665.00;4989466;28;20053;-70
2024/01/20 08:52:25;;;;;;;37.83;15.38;;;;;;;-0.18;80.47;99665.91;5001031;28;20089;-73
2024/01/20 08:54:53;;;;;;;40.22;15.70;;;;;;;-0.24;80.46;99629.91;4999357;28;20046;-72
2024/01/20 08:57:22;;;;;;;36.03;15.35;;;;;;;0.16;80.54;99661.84;5017215;28;20117;-71
2024/01/20 08:59:52;;;;;;;43.47;15.52;;;;;;;0.35;79.70;99682.88;4997623;28;20046;-70
2024/01/20 09:02:21;;;;;;;28.70;12.15;;;;;;;0.29;79.58;99669.09;4992502;28;20060;-69
2024/01/20 09:04:52;;;;;;;25.77;11.60;;;;;;;0.45;79.13;99687.47;4992229;28;20040;-69
2024/01/20 09:07:22;;;;;;;28.33;11.27;;;;;;;0.45;80.34;99661.88;4996699;28;20058;-69
2024/01/20 09:09:48;;;;;;;23.58;10.43;;;;;;;0.86;79.96;99669.03;4993062;28;20456;-70
2024/01/20 09:12:14;;;;;;;28.25;10.98;;;;;;;0.83;80.36;99613.44;4994089;28;20038;-70
2024/01/20 09:14:40;;;;;;;22.30;9.65;;;;;;;1.34;80.47;99634.44;4995095;28;20136;-68
2024/01/20 09:17:06;;;;;;;22.75;10.27;;;;;;;1.69;80.24;99661.78;4995197;28;20054;-70
2024/01/20 09:19:35;;;;;;;26.88;10.45;;;;;;;1.83;80.18;99641.63;4994654;28;20042;-69
2024/01/20 09:22:02;;;;;;;28.63;12.00;;;;;;;1.94;80.03;99624.75;4992825;28;20042;-68
2024/01/20 09:24:30;;;;;;;24.98;10.88;;;;;;;2.36;80.05;99662.50;4993736;28;20039;-69
2024/01/20 09:26:58;;;;;;;29.30;11.05;;;;;;;2.61;79.44;99686.16;4993197;28;20049;-69
2024/01/20 09:29:26;;;;;;;26.27;10.20;;;;;;;2.48;80.12;99691.88;4981607;28;20069;-70
2024/01/20 09:31:59;;;;;;;29.80;10.57;;;;;;;2.23;80.03;99693.88;4989718;28;20046;-68
2024/01/20 09:34:48;;;;;;;27.55;10.23;;;;;;;1.65;79.72;99664.28;4990348;28;20061;-68
2024/01/20 09:37:18;;;;;;;31.67;10.65;;;;;;;1.45;79.29;99671.47;5018235;28;20072;-67
2024/01/20 09:39:47;;;;;;;35.92;11.55;;;;;;;1.35;79.07;99698.56;5016415;28;20133;-71
2024/01/20 09:42:15;;;;;;;27.02;10.68;;;;;;;1.20;79.37;99711.84;5026345;28;20049;-70
2024/01/20 09:44:47;;;;;;;24.70;9.70;;;;;;;1.02;79.37;99676.31;5028863;28;20058;-70
2024/01/20 09:47:23;;;;;;;23.75;9.00;;;;;;;0.94;79.92;99671.81;5014556;28;20046;-68
2024/01/20 09:49:56;;;;;;;24.20;10.35;;;;;;;1.28;80.20;99716.28;5011544;28;20046;-68
2024/01/20 09:52:31;;;;;;;35.05;11.90;;;;;;;1.17;80.09;99704.06;5017607;28;20515;-69
2024/01/20 09:55:23;;;;;;;40.97;13.52;;;;;;;1.20;79.47;99722.09;5026830;28;20037;-72
2024/01/20 09:58:01;;;;;;;27.48;10.75;;;;;;;1.02;79.27;99698.50;5012338;28;20067;-70
2024/01/20 10:01:12;;;;;;;37.55;11.75;;;;;;;1.09;80.46;99725.19;5006780;28;20034;-69
2024/01/20 10:04:15;;;;;;;29.70;10.88;;;;;;;0.70;80.02;99695.91;4997416;28;20348;-71
2024/01/20 10:06:50;;;;;;;31.98;10.80;;;;;;;0.74;79.80;99721.63;5014544;28;20094;-70
2024/01/20 10:09:22;;;;;;;39.80;11.73;;;;;;;0.28;79.44;99675.03;4995604;28;20043;-69
2024/01/20 10:11:50;;;;;;;32.10;10.52;;;;;;;0.27;79.14;99698.91;5026094;28;20176;-71
2024/01/20 10:14:20;;;;;;;29.42;10.52;;;;;;;0.43;79.87;99725.84;5010270;28;20103;-71
2024/01/20 10:16:56;;;;;;;22.63;8.55;;;;;;;0.04;79.62;99661.47;4994957;28;20056;-70
2024/01/20 10:19:30;;;;;;;25.58;9.20;;;;;;;0.25;79.87;99715.91;5025041;28;20050;-70
2024/01/20 10:22:15;;;;;;;;;;;;;;;;;;;;;
2024/01/20 10:24:49;;;;;;;28.42;9.85;;;;;;;0.22;80.10;99726.03;5029831;28;20049;-68
2024/01/20 10:27:23;;;;;;;33.33;11.60;;;;;;;0.16;79.64;99717.28;5026091;28;20670;-68
2024/01/20 10:29:58;;;;;;;26.48;10.85;;;;;;;0.25;80.45;99730.38;5027494;28;20076;-68
2024/01/20 10:32:32;;;;;;;26.65;10.10;;;;;;;0.28;81.00;99712.56;5011101;28;20049;-69
2024/01/20 10:35:02;;;;;;;21.17;8.57;;;;;;;0.49;80.44;99731.97;5011611;28;20139;-68
2024/01/20 10:37:44;;;;;;;29.98;11.25;;;;;;;0.40;79.68;99732.53;5000234;28;20137;-70
2024/01/20 10:40:35;;;;;;;37.40;11.90;;;;;;;0.07;80.92;99685.47;5014264;28;20048;-68
2024/01/20 10:43:11;;;;;;;41.38;13.27;;;;;;;0.32;80.90;99718.66;5029670;28;20540;-69
2024/01/20 10:45:45;;;;;;;36.85;11.50;;;;;;;0.41;80.84;99735.19;5011949;28;20049;-67
2024/01/20 10:48:28;;;;;;;37.20;11.93;;;;;;;0.21;79.95;99714.06;5027179;28;20051;-67
2024/01/20 10:51:07;;;;;;;28.33;10.50;;;;;;;0.16;80.54;99730.94;5027046;28;20111;-66
2024/01/20 10:53:46;;;;;;;42.28;11.73;;;;;;;-0.08;80.45;99675.59;5013813;28;20049;-65
2024/01/20 10:56:24;;;;;;;24.45;9.40;;;;;;;0.29;80.24;99739.88;5011960;28;20045;-65
2024/01/20 10:59:11;;;;;;;21.30;7.90;;;;;;;0.27;80.59;99741.53;5013181;28;20042;-66
2024/01/20 11:01:42;;;;;;;31.40;10.93;;;;;;;0.15;81.12;99706.16;5027347;28;20041;-66
2024/01/20 11:04:09;;;;;;;26.85;10.02;;;;;;;-0.08;80.35;99697.78;5014190;28;20033;-65
2024/01/20 11:06:45;;;;;;;34.53;11.32;;;;;;;-0.08;79.99;99708.84;5000913;28;20046;-68
2024/01/20 11:09:36;;;;;;;38.42;12.20;;;;;;;0.10;80.70;99758.94;5030784;28;20232;-68
2024/01/20 11:12:29;;;;;;;28.42;9.88;;;;;;;-0.34;80.13;99691.00;5006642;28;20046;-70
2024/01/20 11:15:00;;;;;;;28.33;11.07;;;;;;;0.08;80.57;99755.44;5013675;28;20038;-67
2024/01/20 11:17:29;;;;;;;35.40;12.15;;;;;;;0.09;80.73;99746.94;5019118;28;20046;-68
2024/01/20 11:20:07;;;;;;;39.25;12.63;;;;;;;-0.31;80.03;99693.63;5018075;28;20045;-70
2024/01/20 11:22:42;;;;;;;35.03;12.20;;;;;;;-0.38;80.44;99699.38;5026813;28;20508;-67
2024/01/20 11:25:12;;;;;;;49.03;14.77;;;;;;;-0.17;80.72;99740.13;5014148;28;20048;-67
2024/01/20 11:27:47;;;;;;;32.22;11.98;;;;;;;-0.42;80.66;99711.97;5027262;28;20076;-69
2024/01/20 11:30:38;;;;;;;31.65;10.18;;;;;;;-0.21;80.50;99755.31;5032066;28;20060;-69
2024/01/20 11:33:15;;;;;;;;;;;;;;;;;;;;;
2024/01/20 11:35:54;;;;;;;45.03;12.88;;;;;;;-0.10;81.21;99764.22;5016611;28;20090;-70
2024/01/20 11:38:34;;;;;;;26.65;10.63;;;;;;;-0.31;80.28;99738.81;4999609;28;20046;-69
2024/01/20 11:41:01;;;;;;;42.17;11.65;;;;;;;-0.27;80.73;99739.75;5030585;28;20044;-67
2024/01/20 11:43:30;;;;;;;28.90;10.55;;;;;;;-0.08;80.34;99774.53;5018859;28;20041;-68
2024/01/20 11:46:03;;;;;;;31.83;10.60;;;;;;;-0.29;80.48;99741.41;5026950;28;20097;-72
2024/01/20 11:48:34;;;;;;;30.90;11.48;;;;;;;-0.12;80.79;99763.31;5001420;28;20048;-71
2024/01/20 11:51:01;;;;;;;32.70;10.00;;;;;;;-0.30;81.00;99740.53;5016945;28;20037;-69
2024/01/20 11:53:51;;;;;;;31.00;10.38;;;;;;;-0.30;80.13;99755.88;4994010;28;20061;-71